Portada
METAR-TAF:

METAR-TAF

Aeroports :

Gwadar, Pakistan

latitud: 25-13-59N, longitud: 062-19-46E, altitud: 29 m

METAR: manca

Hora: 01:33 (20:33 UTC)

Pronòstic

L'informe es va fer fa 5 hores i 3 minuts, a les 15:30 UTC
Pronòstic vàlid del 26 a les 18 UTC al 27 a les 18 UTC
Vent 10 kt del Oest/Sud-Oest amb ràfegues de 20 kt
Visibilitat: 5000 m
Núvols disperses a una alçada de 2000 ft
calitja
Temporalment
l' 27 a les 00 UTC al 27 a les 04 UTC
Vent 10 kt del Oest/Sud-Oest
Visibilitat: 3000 m
Cel ennuvolat a una alçada de 2000 ft
fum

TAF: OPGD 261530Z 2618/2718 24010G20KT 5000 HZ SCT020 TEMPO 2700/2704 25010KT 3000 FU BKN020

Observacions i pronòstics meteorològics de més de 4000 aeroports (METAR i TAF).

Les estacions disponibles són els punts grocs i vermells al mapa.

Posi el ratolí al punt desitjat per veure el nom de l'estació.

Feu clic per veure les observacions i els pronòstics meteorològics.

Per canviar el mapa: feu clic els botons verds amb una creu de color negre per apropar; al botó verd amb un guió per allunyar la imatge; o en les fletxes verdes per a mapes adjacents.


METAR-TAF: